sensor_id;sensor_type;location;lat;lon;timestamp;temperature;humidity
12874;DHT22;6505;51.114;13.128;2023-07-08T00:01:50;25.10;48.60
12874;DHT22;6505;51.114;13.128;2023-07-08T00:04:18;25.10;48.80
12874;DHT22;6505;51.114;13.128;2023-07-08T00:06:46;25.10;48.70
12874;DHT22;6505;51.114;13.128;2023-07-08T00:09:14;25.10;48.70
12874;DHT22;6505;51.114;13.128;2023-07-08T00:11:42;25.10;48.70
12874;DHT22;6505;51.114;13.128;2023-07-08T00:14:10;25.00;48.70
12874;DHT22;6505;51.114;13.128;2023-07-08T00:16:40;25.00;48.70
12874;DHT22;6505;51.114;13.128;2023-07-08T00:19:08;24.90;48.70
12874;DHT22;6505;51.114;13.128;2023-07-08T00:21:37;24.90;48.90
12874;DHT22;6505;51.114;13.128;2023-07-08T00:24:05;24.90;48.80
12874;DHT22;6505;51.114;13.128;2023-07-08T00:26:33;24.90;48.90
12874;DHT22;6505;51.114;13.128;2023-07-08T00:29:01;24.80;48.90
12874;DHT22;6505;51.114;13.128;2023-07-08T00:31:30;24.80;49.00
12874;DHT22;6505;51.114;13.128;2023-07-08T00:34:00;24.80;49.00
12874;DHT22;6505;51.114;13.128;2023-07-08T00:36:30;24.80;49.00
12874;DHT22;6505;51.114;13.128;2023-07-08T00:38:59;24.80;49.20
12874;DHT22;6505;51.114;13.128;2023-07-08T00:41:29;24.70;49.10
12874;DHT22;6505;51.114;13.128;2023-07-08T00:44:01;24.70;49.10
12874;DHT22;6505;51.114;13.128;2023-07-08T00:46:34;24.60;49.10
12874;DHT22;6505;51.114;13.128;2023-07-08T00:49:21;24.60;49.30
12874;DHT22;6505;51.114;13.128;2023-07-08T00:51:54;24.60;49.30
12874;DHT22;6505;51.114;13.128;2023-07-08T00:54:22;24.60;49.30
12874;DHT22;6505;51.114;13.128;2023-07-08T00:56:53;24.60;49.30
12874;DHT22;6505;51.114;13.128;2023-07-08T00:59:28;24.50;49.40
12874;DHT22;6505;51.114;13.128;2023-07-08T01:02:03;24.50;49.50
12874;DHT22;6505;51.114;13.128;2023-07-08T01:04:44;24.50;49.50
12874;DHT22;6505;51.114;13.128;2023-07-08T01:07:19;24.40;49.60
12874;DHT22;6505;51.114;13.128;2023-07-08T01:09:52;24.40;49.50
12874;DHT22;6505;51.114;13.128;2023-07-08T01:12:27;24.40;49.60
12874;DHT22;6505;51.114;13.128;2023-07-08T01:15:00;24.40;49.60
12874;DHT22;6505;51.114;13.128;2023-07-08T01:17:30;24.30;49.60
12874;DHT22;6505;51.114;13.128;2023-07-08T01:20:04;24.30;49.50
12874;DHT22;6505;51.114;13.128;2023-07-08T01:22:35;24.30;49.70
12874;DHT22;6505;51.114;13.128;2023-07-08T01:25:05;24.20;49.60
12874;DHT22;6505;51.114;13.128;2023-07-08T01:27:37;24.20;49.80
12874;DHT22;6505;51.114;13.128;2023-07-08T01:30:08;24.30;49.80
12874;DHT22;6505;51.114;13.128;2023-07-08T01:32:39;24.20;49.80
12874;DHT22;6505;51.114;13.128;2023-07-08T01:35:13;24.20;49.70
12874;DHT22;6505;51.114;13.128;2023-07-08T01:37:47;24.20;49.60
12874;DHT22;6505;51.114;13.128;2023-07-08T01:40:26;24.10;49.70
12874;DHT22;6505;51.114;13.128;2023-07-08T01:42:56;24.10;49.70
12874;DHT22;6505;51.114;13.128;2023-07-08T01:45:27;24.10;49.50
12874;DHT22;6505;51.114;13.128;2023-07-08T01:47:59;24.10;49.70
12874;DHT22;6505;51.114;13.128;2023-07-08T01:50:34;24.00;49.60
12874;DHT22;6505;51.114;13.128;2023-07-08T01:53:12;24.00;49.50
12874;DHT22;6505;51.114;13.128;2023-07-08T01:55:43;24.00;49.60
12874;DHT22;6505;51.114;13.128;2023-07-08T01:58:12;24.00;49.50
12874;DHT22;6505;51.114;13.128;2023-07-08T02:00:40;23.90;49.40
12874;DHT22;6505;51.114;13.128;2023-07-08T02:03:08;24.00;49.50
12874;DHT22;6505;51.114;13.128;2023-07-08T02:05:37;23.90;49.50
12874;DHT22;6505;51.114;13.128;2023-07-08T02:08:05;23.90;49.50
12874;DHT22;6505;51.114;13.128;2023-07-08T02:10:34;23.80;49.40
12874;DHT22;6505;51.114;13.128;2023-07-08T02:13:02;23.80;49.50
12874;DHT22;6505;51.114;13.128;2023-07-08T02:15:30;23.80;49.40
12874;DHT22;6505;51.114;13.128;2023-07-08T02:17:59;23.80;49.50
12874;DHT22;6505;51.114;13.128;2023-07-08T02:20:27;23.70;49.40
12874;DHT22;6505;51.114;13.128;2023-07-08T02:22:55;23.70;49.40
12874;DHT22;6505;51.114;13.128;2023-07-08T02:25:23;23.70;49.40
12874;DHT22;6505;51.114;13.128;2023-07-08T02:27:53;23.70;49.50
12874;DHT22;6505;51.114;13.128;2023-07-08T02:30:23;23.70;49.50
12874;DHT22;6505;51.114;13.128;2023-07-08T02:32:52;23.60;49.50
12874;DHT22;6505;51.114;13.128;2023-07-08T02:35:25;23.60;49.60
12874;DHT22;6505;51.114;13.128;2023-07-08T02:37:54;23.60;49.60
12874;DHT22;6505;51.114;13.128;2023-07-08T02:40:25;23.60;49.60
12874;DHT22;6505;51.114;13.128;2023-07-08T02:42:54;23.60;49.70
12874;DHT22;6505;51.114;13.128;2023-07-08T02:45:23;23.50;49.50
12874;DHT22;6505;51.114;13.128;2023-07-08T02:47:52;23.50;49.50
12874;DHT22;6505;51.114;13.128;2023-07-08T02:50:20;23.50;49.50
12874;DHT22;6505;51.114;13.128;2023-07-08T02:52:48;23.50;49.50
12874;DHT22;6505;51.114;13.128;2023-07-08T02:55:16;23.40;49.50
12874;DHT22;6505;51.114;13.128;2023-07-08T02:57:44;23.40;49.50
12874;DHT22;6505;51.114;13.128;2023-07-08T03:00:14;23.40;49.60
12874;DHT22;6505;51.114;13.128;2023-07-08T03:02:43;23.40;49.80
12874;DHT22;6505;51.114;13.128;2023-07-08T03:05:11;23.40;49.50
12874;DHT22;6505;51.114;13.128;2023-07-08T03:07:39;23.30;49.50
12874;DHT22;6505;51.114;13.128;2023-07-08T03:10:07;23.30;49.50
12874;DHT22;6505;51.114;13.128;2023-07-08T03:12:36;23.30;49.60
12874;DHT22;6505;51.114;13.128;2023-07-08T03:15:05;23.30;49.50
12874;DHT22;6505;51.114;13.128;2023-07-08T03:17:35;23.30;49.70
12874;DHT22;6505;51.114;13.128;2023-07-08T03:20:04;23.20;49.60
12874;DHT22;6505;51.114;13.128;2023-07-08T03:22:33;23.20;49.60
12874;DHT22;6505;51.114;13.128;2023-07-08T03:25:01;23.20;49.70
12874;DHT22;6505;51.114;13.128;2023-07-08T03:27:30;23.20;49.70
12874;DHT22;6505;51.114;13.128;2023-07-08T03:29:58;23.10;49.60
12874;DHT22;6505;51.114;13.128;2023-07-08T03:32:26;23.10;49.40
12874;DHT22;6505;51.114;13.128;2023-07-08T03:34:55;23.10;49.80
12874;DHT22;6505;51.114;13.128;2023-07-08T03:37:23;23.10;49.90
12874;DHT22;6505;51.114;13.128;2023-07-08T03:39:51;23.10;49.90
12874;DHT22;6505;51.114;13.128;2023-07-08T03:42:19;23.10;50.00
12874;DHT22;6505;51.114;13.128;2023-07-08T03:44:47;23.10;50.10
12874;DHT22;6505;51.114;13.128;2023-07-08T03:47:16;23.10;50.00
12874;DHT22;6505;51.114;13.128;2023-07-08T03:49:44;23.10;49.50
12874;DHT22;6505;51.114;13.128;2023-07-08T03:52:15;23.10;50.00
12874;DHT22;6505;51.114;13.128;2023-07-08T03:54:45;23.00;50.10
12874;DHT22;6505;51.114;13.128;2023-07-08T03:57:13;23.10;50.10
12874;DHT22;6505;51.114;13.128;2023-07-08T03:59:42;23.10;50.20
12874;DHT22;6505;51.114;13.128;2023-07-08T04:02:11;23.10;50.40
12874;DHT22;6505;51.114;13.128;2023-07-08T04:04:39;23.00;50.10
12874;DHT22;6505;51.114;13.128;2023-07-08T04:07:09;23.00;50.30
12874;DHT22;6505;51.114;13.128;2023-07-08T04:09:40;23.00;50.40
12874;DHT22;6505;51.114;13.128;2023-07-08T04:12:10;23.00;50.40
12874;DHT22;6505;51.114;13.128;2023-07-08T04:14:38;23.00;50.60
12874;DHT22;6505;51.114;13.128;2023-07-08T04:17:09;23.00;50.80
12874;DHT22;6505;51.114;13.128;2023-07-08T04:19:39;23.00;50.90
12874;DHT22;6505;51.114;13.128;2023-07-08T04:22:10;23.00;51.00
12874;DHT22;6505;51.114;13.128;2023-07-08T04:24:40;23.00;51.00
12874;DHT22;6505;51.114;13.128;2023-07-08T04:27:12;23.00;51.00
12874;DHT22;6505;51.114;13.128;2023-07-08T04:29:43;23.00;51.40
12874;DHT22;6505;51.114;13.128;2023-07-08T04:32:11;23.00;51.40
12874;DHT22;6505;51.114;13.128;2023-07-08T04:34:39;23.00;51.30
12874;DHT22;6505;51.114;13.128;2023-07-08T04:37:08;23.00;51.40
12874;DHT22;6505;51.114;13.128;2023-07-08T04:39:40;23.00;51.60
12874;DHT22;6505;51.114;13.128;2023-07-08T04:42:08;23.10;51.70
12874;DHT22;6505;51.114;13.128;2023-07-08T04:44:36;23.10;52.00
12874;DHT22;6505;51.114;13.128;2023-07-08T04:47:04;23.10;52.10
12874;DHT22;6505;51.114;13.128;2023-07-08T04:49:33;23.10;52.00
12874;DHT22;6505;51.114;13.128;2023-07-08T04:52:01;23.10;52.30
12874;DHT22;6505;51.114;13.128;2023-07-08T04:54:30;23.10;52.50
12874;DHT22;6505;51.114;13.128;2023-07-08T04:56:59;23.20;52.40
12874;DHT22;6505;51.114;13.128;2023-07-08T04:59:27;23.20;52.90
12874;DHT22;6505;51.114;13.128;2023-07-08T05:01:55;23.20;52.80
12874;DHT22;6505;51.114;13.128;2023-07-08T05:04:23;23.30;53.00
12874;DHT22;6505;51.114;13.128;2023-07-08T05:06:51;23.30;53.00
12874;DHT22;6505;51.114;13.128;2023-07-08T05:09:19;23.30;53.00
12874;DHT22;6505;51.114;13.128;2023-07-08T05:11:48;23.30;53.10
12874;DHT22;6505;51.114;13.128;2023-07-08T05:14:18;23.40;53.10
12874;DHT22;6505;51.114;13.128;2023-07-08T05:16:46;23.40;53.00
12874;DHT22;6505;51.114;13.128;2023-07-08T05:19:14;23.40;53.00
12874;DHT22;6505;51.114;13.128;2023-07-08T05:21:42;23.50;53.00
12874;DHT22;6505;51.114;13.128;2023-07-08T05:24:11;23.50;52.80
12874;DHT22;6505;51.114;13.128;2023-07-08T05:26:39;23.60;52.90
12874;DHT22;6505;51.114;13.128;2023-07-08T05:29:07;23.60;52.90
12874;DHT22;6505;51.114;13.128;2023-07-08T05:31:36;23.60;53.00
12874;DHT22;6505;51.114;13.128;2023-07-08T05:34:14;23.70;53.40
12874;DHT22;6505;51.114;13.128;2023-07-08T05:36:43;23.80;53.10
12874;DHT22;6505;51.114;13.128;2023-07-08T05:39:11;23.80;53.00
12874;DHT22;6505;51.114;13.128;2023-07-08T05:41:39;23.80;52.90
12874;DHT22;6505;51.114;13.128;2023-07-08T05:44:07;23.80;52.50
12874;DHT22;6505;51.114;13.128;2023-07-08T05:46:36;24.00;52.50
12874;DHT22;6505;51.114;13.128;2023-07-08T05:49:04;23.90;52.30
12874;DHT22;6505;51.114;13.128;2023-07-08T05:51:33;24.10;52.30
12874;DHT22;6505;51.114;13.128;2023-07-08T05:54:01;24.00;52.70
12874;DHT22;6505;51.114;13.128;2023-07-08T05:56:30;24.10;52.50
12874;DHT22;6505;51.114;13.128;2023-07-08T05:58:59;24.20;52.20
12874;DHT22;6505;51.114;13.128;2023-07-08T06:01:29;24.30;52.80
12874;DHT22;6505;51.114;13.128;2023-07-08T06:04:02;24.30;52.50
12874;DHT22;6505;51.114;13.128;2023-07-08T06:06:33;24.40;52.60
12874;DHT22;6505;51.114;13.128;2023-07-08T06:09:03;24.40;52.40
12874;DHT22;6505;51.114;13.128;2023-07-08T06:11:34;24.50;51.90
12874;DHT22;6505;51.114;13.128;2023-07-08T06:14:05;24.50;51.40
12874;DHT22;6505;51.114;13.128;2023-07-08T06:16:36;24.60;51.40
12874;DHT22;6505;51.114;13.128;2023-07-08T06:19:10;24.60;51.20
12874;DHT22;6505;51.114;13.128;2023-07-08T06:21:43;24.70;50.90
12874;DHT22;6505;51.114;13.128;2023-07-08T06:24:16;24.80;51.10
12874;DHT22;6505;51.114;13.128;2023-07-08T06:26:47;24.80;51.10
12874;DHT22;6505;51.114;13.128;2023-07-08T06:29:20;24.90;51.30
12874;DHT22;6505;51.114;13.128;2023-07-08T06:31:50;24.90;51.20
12874;DHT22;6505;51.114;13.128;2023-07-08T06:34:22;25.00;51.50
12874;DHT22;6505;51.114;13.128;2023-07-08T06:36:53;25.00;51.30
12874;DHT22;6505;51.114;13.128;2023-07-08T06:39:24;25.10;50.80
12874;DHT22;6505;51.114;13.128;2023-07-08T06:41:54;25.10;50.80
12874;DHT22;6505;51.114;13.128;2023-07-08T06:44:28;25.10;50.90
12874;DHT22;6505;51.114;13.128;2023-07-08T06:46:59;25.20;50.90
12874;DHT22;6505;51.114;13.128;2023-07-08T06:49:31;25.20;51.00
12874;DHT22;6505;51.114;13.128;2023-07-08T06:52:01;25.20;50.80
12874;DHT22;6505;51.114;13.128;2023-07-08T06:54:32;25.30;50.90
12874;DHT22;6505;51.114;13.128;2023-07-08T06:57:04;25.30;51.00
12874;DHT22;6505;51.114;13.128;2023-07-08T06:59:36;25.40;51.00
12874;DHT22;6505;51.114;13.128;2023-07-08T07:02:09;25.40;50.90
12874;DHT22;6505;51.114;13.128;2023-07-08T07:04:41;25.50;50.90
12874;DHT22;6505;51.114;13.128;2023-07-08T07:07:13;25.50;51.10
12874;DHT22;6505;51.114;13.128;2023-07-08T07:09:43;25.50;50.80
12874;DHT22;6505;51.114;13.128;2023-07-08T07:12:13;25.60;50.70
12874;DHT22;6505;51.114;13.128;2023-07-08T07:14:42;25.60;50.70
12874;DHT22;6505;51.114;13.128;2023-07-08T07:17:15;25.70;50.70
12874;DHT22;6505;51.114;13.128;2023-07-08T07:19:46;25.70;50.50
12874;DHT22;6505;51.114;13.128;2023-07-08T07:22:16;25.80;51.10
12874;DHT22;6505;51.114;13.128;2023-07-08T07:24:47;25.80;49.90
12874;DHT22;6505;51.114;13.128;2023-07-08T07:27:17;25.90;51.10
12874;DHT22;6505;51.114;13.128;2023-07-08T07:29:50;25.90;50.10
12874;DHT22;6505;51.114;13.128;2023-07-08T07:32:24;26.00;49.60
12874;DHT22;6505;51.114;13.128;2023-07-08T07:34:59;26.00;49.70
12874;DHT22;6505;51.114;13.128;2023-07-08T07:37:31;26.10;50.10
12874;DHT22;6505;51.114;13.128;2023-07-08T07:40:04;26.10;50.10
12874;DHT22;6505;51.114;13.128;2023-07-08T07:42:43;26.20;50.00
12874;DHT22;6505;51.114;13.128;2023-07-08T07:45:16;26.30;49.60
12874;DHT22;6505;51.114;13.128;2023-07-08T07:47:51;26.50;49.80
12874;DHT22;6505;51.114;13.128;2023-07-08T07:50:24;26.60;49.80
12874;DHT22;6505;51.114;13.128;2023-07-08T07:52:58;26.70;49.30
12874;DHT22;6505;51.114;13.128;2023-07-08T07:55:33;26.80;49.10
12874;DHT22;6505;51.114;13.128;2023-07-08T07:58:04;27.00;49.50
12874;DHT22;6505;51.114;13.128;2023-07-08T08:00:35;27.20;49.30
12874;DHT22;6505;51.114;13.128;2023-07-08T08:03:05;27.30;48.50
12874;DHT22;6505;51.114;13.128;2023-07-08T08:05:38;27.40;48.30
12874;DHT22;6505;51.114;13.128;2023-07-08T08:08:09;27.60;48.30
12874;DHT22;6505;51.114;13.128;2023-07-08T08:10:43;27.70;48.30
12874;DHT22;6505;51.114;13.128;2023-07-08T08:13:14;27.90;47.60
12874;DHT22;6505;51.114;13.128;2023-07-08T08:15:48;28.00;47.50
12874;DHT22;6505;51.114;13.128;2023-07-08T08:18:28;28.10;47.00
12874;DHT22;6505;51.114;13.128;2023-07-08T08:21:03;28.30;47.10
12874;DHT22;6505;51.114;13.128;2023-07-08T08:23:37;28.50;46.20
12874;DHT22;6505;51.114;13.128;2023-07-08T08:26:09;28.60;46.50
12874;DHT22;6505;51.114;13.128;2023-07-08T08:28:43;28.70;46.30
12874;DHT22;6505;51.114;13.128;2023-07-08T08:31:17;28.90;46.30
12874;DHT22;6505;51.114;13.128;2023-07-08T08:33:53;29.00;46.30
12874;DHT22;6505;51.114;13.128;2023-07-08T08:36:27;29.10;45.70
12874;DHT22;6505;51.114;13.128;2023-07-08T08:39:00;29.30;45.50
12874;DHT22;6505;51.114;13.128;2023-07-08T08:41:35;29.30;45.30
12874;DHT22;6505;51.114;13.128;2023-07-08T08:44:14;29.40;45.10
12874;DHT22;6505;51.114;13.128;2023-07-08T08:46:55;29.60;44.90
12874;DHT22;6505;51.114;13.128;2023-07-08T08:49:41;29.70;44.70
12874;DHT22;6505;51.114;13.128;2023-07-08T08:52:19;29.70;44.70
12874;DHT22;6505;51.114;13.128;2023-07-08T08:54:50;29.80;45.50
12874;DHT22;6505;51.114;13.128;2023-07-08T08:57:32;29.90;45.50
12874;DHT22;6505;51.114;13.128;2023-07-08T09:00:16;30.00;46.40
12874;DHT22;6505;51.114;13.128;2023-07-08T09:03:01;30.10;45.90
12874;DHT22;6505;51.114;13.128;2023-07-08T09:05:37;30.20;45.60
12874;DHT22;6505;51.114;13.128;2023-07-08T09:08:14;30.20;45.00
12874;DHT22;6505;51.114;13.128;2023-07-08T09:10:58;30.30;44.80
12874;DHT22;6505;51.114;13.128;2023-07-08T09:13:34;30.40;45.00
12874;DHT22;6505;51.114;13.128;2023-07-08T09:16:07;30.50;45.40
12874;DHT22;6505;51.114;13.128;2023-07-08T09:18:58;30.60;44.70
12874;DHT22;6505;51.114;13.128;2023-07-08T09:21:36;30.60;44.50
12874;DHT22;6505;51.114;13.128;2023-07-08T09:24:17;30.80;44.00
12874;DHT22;6505;51.114;13.128;2023-07-08T09:26:53;30.80;43.00
12874;DHT22;6505;51.114;13.128;2023-07-08T09:29:27;30.90;43.40
12874;DHT22;6505;51.114;13.128;2023-07-08T09:31:58;30.90;43.30
12874;DHT22;6505;51.114;13.128;2023-07-08T09:34:41;30.90;43.00
12874;DHT22;6505;51.114;13.128;2023-07-08T09:37:25;30.90;42.30
12874;DHT22;6505;51.114;13.128;2023-07-08T09:39:59;30.90;42.40
12874;DHT22;6505;51.114;13.128;2023-07-08T09:42:48;30.90;42.10
12874;DHT22;6505;51.114;13.128;2023-07-08T09:45:22;30.90;42.30
12874;DHT22;6505;51.114;13.128;2023-07-08T09:47:54;30.80;41.90
12874;DHT22;6505;51.114;13.128;2023-07-08T09:50:27;30.80;42.10
12874;DHT22;6505;51.114;13.128;2023-07-08T09:53:00;30.80;42.20
12874;DHT22;6505;51.114;13.128;2023-07-08T09:55:32;30.70;42.20
12874;DHT22;6505;51.114;13.128;2023-07-08T09:58:03;30.70;42.20
12874;DHT22;6505;51.114;13.128;2023-07-08T10:00:39;30.70;42.20
12874;DHT22;6505;51.114;13.128;2023-07-08T10:03:15;30.70;42.20
12874;DHT22;6505;51.114;13.128;2023-07-08T10:05:49;30.70;42.20
12874;DHT22;6505;51.114;13.128;2023-07-08T10:08:30;30.60;42.00
12874;DHT22;6505;51.114;13.128;2023-07-08T10:11:22;30.60;41.50
12874;DHT22;6505;51.114;13.128;2023-07-08T10:13:59;30.60;41.60
12874;DHT22;6505;51.114;13.128;2023-07-08T10:16:41;30.60;42.10
12874;DHT22;6505;51.114;13.128;2023-07-08T10:19:13;30.60;42.60
12874;DHT22;6505;51.114;13.128;2023-07-08T10:21:54;30.60;42.10
12874;DHT22;6505;51.114;13.128;2023-07-08T10:24:38;30.60;41.30
12874;DHT22;6505;51.114;13.128;2023-07-08T10:27:24;30.50;41.40
12874;DHT22;6505;51.114;13.128;2023-07-08T10:30:11;30.50;40.80
12874;DHT22;6505;51.114;13.128;2023-07-08T10:36:00;30.50;41.00
12874;DHT22;6505;51.114;13.128;2023-07-08T10:38:52;30.50;41.30
12874;DHT22;6505;51.114;13.128;2023-07-08T10:41:43;30.50;41.10
12874;DHT22;6505;51.114;13.128;2023-07-08T10:44:33;30.50;41.50
12874;DHT22;6505;51.114;13.128;2023-07-08T10:47:20;30.40;41.80
12874;DHT22;6505;51.114;13.128;2023-07-08T10:50:16;30.40;41.50
12874;DHT22;6505;51.114;13.128;2023-07-08T10:53:16;30.40;41.60
12874;DHT22;6505;51.114;13.128;2023-07-08T10:55:59;30.40;41.30
12874;DHT22;6505;51.114;13.128;2023-07-08T11:02:09;30.40;41.20
12874;DHT22;6505;51.114;13.128;2023-07-08T11:05:02;30.40;41.30
12874;DHT22;6505;51.114;13.128;2023-07-08T11:07:50;30.40;41.70
12874;DHT22;6505;51.114;13.128;2023-07-08T11:10:31;30.40;41.40
12874;DHT22;6505;51.114;13.128;2023-07-08T11:13:10;30.40;41.10
12874;DHT22;6505;51.114;13.128;2023-07-08T11:15:48;30.30;41.40
12874;DHT22;6505;51.114;13.128;2023-07-08T11:18:28;30.30;41.40
12874;DHT22;6505;51.114;13.128;2023-07-08T11:21:10;30.30;41.70
12874;DHT22;6505;51.114;13.128;2023-07-08T11:23:49;30.30;40.20
12874;DHT22;6505;51.114;13.128;2023-07-08T11:26:27;30.30;37.90
12874;DHT22;6505;51.114;13.128;2023-07-08T11:29:12;30.30;39.10
12874;DHT22;6505;51.114;13.128;2023-07-08T11:31:52;30.30;40.20
12874;DHT22;6505;51.114;13.128;2023-07-08T11:34:33;30.30;38.70
12874;DHT22;6505;51.114;13.128;2023-07-08T11:37:07;30.30;38.00
12874;DHT22;6505;51.114;13.128;2023-07-08T11:39:43;30.30;37.30
12874;DHT22;6505;51.114;13.128;2023-07-08T11:42:23;30.30;37.20
12874;DHT22;6505;51.114;13.128;2023-07-08T11:48:09;30.30;37.10
12874;DHT22;6505;51.114;13.128;2023-07-08T11:50:46;30.30;38.70
12874;DHT22;6505;51.114;13.128;2023-07-08T11:53:46;30.30;39.00
12874;DHT22;6505;51.114;13.128;2023-07-08T11:56:23;30.30;38.90
12874;DHT22;6505;51.114;13.128;2023-07-08T11:59:05;30.30;38.00
12874;DHT22;6505;51.114;13.128;2023-07-08T12:01:47;30.30;37.00
12874;DHT22;6505;51.114;13.128;2023-07-08T12:04:30;30.30;37.80
12874;DHT22;6505;51.114;13.128;2023-07-08T12:07:14;30.30;36.20
12874;DHT22;6505;51.114;13.128;2023-07-08T12:09:47;30.30;35.80
12874;DHT22;6505;51.114;13.128;2023-07-08T12:12:22;30.30;36.70
12874;DHT22;6505;51.114;13.128;2023-07-08T12:15:00;30.30;36.00
12874;DHT22;6505;51.114;13.128;2023-07-08T12:17:33;30.30;35.60
12874;DHT22;6505;51.114;13.128;2023-07-08T12:20:03;30.30;36.30
12874;DHT22;6505;51.114;13.128;2023-07-08T12:22:41;30.30;36.40
12874;DHT22;6505;51.114;13.128;2023-07-08T12:25:13;30.30;36.50
12874;DHT22;6505;51.114;13.128;2023-07-08T12:27:43;30.30;36.20
12874;DHT22;6505;51.114;13.128;2023-07-08T12:30:16;30.30;36.70
12874;DHT22;6505;51.114;13.128;2023-07-08T12:32:45;30.30;36.60
12874;DHT22;6505;51.114;13.128;2023-07-08T12:35:21;30.30;36.70
12874;DHT22;6505;51.114;13.128;2023-07-08T12:37:55;30.30;36.20
12874;DHT22;6505;51.114;13.128;2023-07-08T12:40:26;30.30;36.70
12874;DHT22;6505;51.114;13.128;2023-07-08T12:42:56;30.30;36.30
12874;DHT22;6505;51.114;13.128;2023-07-08T12:45:30;30.30;35.30
12874;DHT22;6505;51.114;13.128;2023-07-08T12:47:58;30.40;34.50
12874;DHT22;6505;51.114;13.128;2023-07-08T12:50:26;30.30;34.30
12874;DHT22;6505;51.114;13.128;2023-07-08T12:52:56;30.40;34.80
12874;DHT22;6505;51.114;13.128;2023-07-08T12:55:25;30.40;34.40
12874;DHT22;6505;51.114;13.128;2023-07-08T12:57:54;30.40;35.00
12874;DHT22;6505;51.114;13.128;2023-07-08T13:00:27;30.40;34.40
12874;DHT22;6505;51.114;13.128;2023-07-08T13:03:02;30.40;35.40
12874;DHT22;6505;51.114;13.128;2023-07-08T13:05:33;30.40;35.10
12874;DHT22;6505;51.114;13.128;2023-07-08T13:08:05;30.50;35.60
12874;DHT22;6505;51.114;13.128;2023-07-08T13:10:36;30.50;35.90
12874;DHT22;6505;51.114;13.128;2023-07-08T13:13:07;30.40;35.90
12874;DHT22;6505;51.114;13.128;2023-07-08T13:15:41;30.50;36.40
12874;DHT22;6505;51.114;13.128;2023-07-08T13:18:14;30.50;36.60
12874;DHT22;6505;51.114;13.128;2023-07-08T13:20:45;30.50;37.20
12874;DHT22;6505;51.114;13.128;2023-07-08T13:23:18;30.50;36.60
12874;DHT22;6505;51.114;13.128;2023-07-08T13:25:50;30.50;36.40
12874;DHT22;6505;51.114;13.128;2023-07-08T13:28:23;30.60;36.50
12874;DHT22;6505;51.114;13.128;2023-07-08T13:30:53;30.40;35.40
12874;DHT22;6505;51.114;13.128;2023-07-08T13:33:23;30.50;35.30
12874;DHT22;6505;51.114;13.128;2023-07-08T13:35:52;30.50;34.20
12874;DHT22;6505;51.114;13.128;2023-07-08T13:38:30;30.50;34.50
12874;DHT22;6505;51.114;13.128;2023-07-08T13:41:03;30.50;34.80
12874;DHT22;6505;51.114;13.128;2023-07-08T13:43:34;30.50;34.70
12874;DHT22;6505;51.114;13.128;2023-07-08T13:46:04;30.50;34.40
12874;DHT22;6505;51.114;13.128;2023-07-08T13:48:36;30.50;34.70
12874;DHT22;6505;51.114;13.128;2023-07-08T13:51:08;30.50;34.50
12874;DHT22;6505;51.114;13.128;2023-07-08T13:53:48;30.60;34.10
12874;DHT22;6505;51.114;13.128;2023-07-08T13:56:20;30.60;33.80
12874;DHT22;6505;51.114;13.128;2023-07-08T13:58:51;30.50;34.00
12874;DHT22;6505;51.114;13.128;2023-07-08T14:01:21;30.60;34.00
12874;DHT22;6505;51.114;13.128;2023-07-08T14:03:54;30.60;33.40
12874;DHT22;6505;51.114;13.128;2023-07-08T14:06:27;30.60;33.60
12874;DHT22;6505;51.114;13.128;2023-07-08T14:09:06;30.60;33.60
12874;DHT22;6505;51.114;13.128;2023-07-08T14:11:38;30.70;33.60
12874;DHT22;6505;51.114;13.128;2023-07-08T14:14:07;30.70;33.90
12874;DHT22;6505;51.114;13.128;2023-07-08T14:16:38;30.70;33.40
12874;DHT22;6505;51.114;13.128;2023-07-08T14:19:13;30.70;33.60
12874;DHT22;6505;51.114;13.128;2023-07-08T14:21:43;30.80;33.40
12874;DHT22;6505;51.114;13.128;2023-07-08T14:24:14;30.70;33.70
12874;DHT22;6505;51.114;13.128;2023-07-08T14:26:43;30.80;33.70
12874;DHT22;6505;51.114;13.128;2023-07-08T14:29:13;30.80;33.70
12874;DHT22;6505;51.114;13.128;2023-07-08T14:31:41;30.80;33.90
12874;DHT22;6505;51.114;13.128;2023-07-08T14:34:13;30.80;34.30
12874;DHT22;6505;51.114;13.128;2023-07-08T14:36:48;30.80;34.20
12874;DHT22;6505;51.114;13.128;2023-07-08T14:39:18;30.80;33.70
12874;DHT22;6505;51.114;13.128;2023-07-08T14:41:49;30.80;33.80
12874;DHT22;6505;51.114;13.128;2023-07-08T14:44:20;30.80;34.70
12874;DHT22;6505;51.114;13.128;2023-07-08T14:46:50;30.80;34.50
12874;DHT22;6505;51.114;13.128;2023-07-08T14:49:20;30.90;34.70
12874;DHT22;6505;51.114;13.128;2023-07-08T14:51:50;30.80;34.80
12874;DHT22;6505;51.114;13.128;2023-07-08T14:54:21;30.80;35.10
12874;DHT22;6505;51.114;13.128;2023-07-08T14:56:49;30.80;34.00
12874;DHT22;6505;51.114;13.128;2023-07-08T14:59:20;30.80;33.90
12874;DHT22;6505;51.114;13.128;2023-07-08T15:01:50;30.80;34.30
12874;DHT22;6505;51.114;13.128;2023-07-08T15:04:19;30.80;33.60
12874;DHT22;6505;51.114;13.128;2023-07-08T15:06:48;30.80;34.10
12874;DHT22;6505;51.114;13.128;2023-07-08T15:09:17;30.80;34.00
12874;DHT22;6505;51.114;13.128;2023-07-08T15:11:46;30.80;34.30
12874;DHT22;6505;51.114;13.128;2023-07-08T15:14:18;30.80;34.80
12874;DHT22;6505;51.114;13.128;2023-07-08T15:16:49;30.80;34.60
12874;DHT22;6505;51.114;13.128;2023-07-08T15:19:18;30.80;35.10
12874;DHT22;6505;51.114;13.128;2023-07-08T15:21:46;30.80;35.40
12874;DHT22;6505;51.114;13.128;2023-07-08T15:24:15;30.80;34.90
12874;DHT22;6505;51.114;13.128;2023-07-08T15:26:46;30.80;35.10
12874;DHT22;6505;51.114;13.128;2023-07-08T15:29:18;30.80;34.70
12874;DHT22;6505;51.114;13.128;2023-07-08T15:31:48;30.80;34.10
12874;DHT22;6505;51.114;13.128;2023-07-08T15:34:20;30.80;34.70
12874;DHT22;6505;51.114;13.128;2023-07-08T15:36:50;30.80;34.30
12874;DHT22;6505;51.114;13.128;2023-07-08T15:39:18;30.80;34.50
12874;DHT22;6505;51.114;13.128;2023-07-08T15:41:47;30.80;33.90
12874;DHT22;6505;51.114;13.128;2023-07-08T15:44:15;30.80;33.30
12874;DHT22;6505;51.114;13.128;2023-07-08T15:46:45;30.80;33.30
12874;DHT22;6505;51.114;13.128;2023-07-08T15:49:17;30.80;33.50
12874;DHT22;6505;51.114;13.128;2023-07-08T15:51:46;30.80;33.10
12874;DHT22;6505;51.114;13.128;2023-07-08T15:54:17;30.80;33.20
12874;DHT22;6505;51.114;13.128;2023-07-08T15:56:48;30.80;33.30
12874;DHT22;6505;51.114;13.128;2023-07-08T15:59:21;30.80;33.30
12874;DHT22;6505;51.114;13.128;2023-07-08T16:01:51;30.80;33.40
12874;DHT22;6505;51.114;13.128;2023-07-08T16:04:23;30.90;33.80
12874;DHT22;6505;51.114;13.128;2023-07-08T16:06:53;30.90;33.80
12874;DHT22;6505;51.114;13.128;2023-07-08T16:09:21;30.90;33.50
12874;DHT22;6505;51.114;13.128;2023-07-08T16:11:51;30.90;33.20
12874;DHT22;6505;51.114;13.128;2023-07-08T16:14:19;30.90;33.40